createdAt,value
2017-04-13T00:00:21.288Z,0
2017-04-13T00:01:31.363Z,0
2017-04-13T00:02:41.513Z,0
2017-04-13T00:03:51.292Z,0
2017-04-13T00:05:01.544Z,0
2017-04-13T00:06:11.967Z,0
2017-04-13T00:07:22.089Z,0
2017-04-13T00:08:31.866Z,0
2017-04-13T00:09:41.934Z,0
2017-04-13T00:10:51.667Z,0
2017-04-13T00:12:01.399Z,0
2017-04-13T00:13:11.471Z,0
2017-04-13T00:14:21.207Z,0
2017-04-13T00:15:30.988Z,0
2017-04-13T00:16:40.800Z,0
2017-04-13T00:17:51.210Z,0
2017-04-13T00:19:01.028Z,0
2017-04-13T00:20:10.780Z,0
2017-04-13T00:21:20.524Z,0
2017-04-13T00:22:29.977Z,0
2017-04-13T00:23:40.008Z,0
2017-04-13T00:24:50.098Z,0
2017-04-13T00:25:59.867Z,0
2017-04-13T00:27:09.293Z,0
2017-04-13T00:28:19.440Z,0
2017-04-13T00:29:29.560Z,0
2017-04-13T00:30:39.295Z,0
2017-04-13T00:31:49.081Z,0
2017-04-13T00:32:59.167Z,0
2017-04-13T00:34:08.961Z,0
2017-04-13T00:35:19.335Z,0
2017-04-13T00:36:48.540Z,0
2017-04-13T00:37:58.699Z,0
2017-04-13T00:39:08.455Z,0
2017-04-13T00:40:18.385Z,0
2017-04-13T00:41:28.421Z,0
2017-04-13T00:42:38.388Z,0
2017-04-13T00:43:48.371Z,0
2017-04-13T00:44:57.722Z,0
2017-04-13T00:46:08.001Z,0
2017-04-13T00:47:17.948Z,0
2017-04-13T00:48:27.906Z,0
2017-04-13T00:49:36.890Z,0
2017-04-13T00:50:46.850Z,0
2017-04-13T00:51:56.256Z,0
2017-04-13T00:53:06.401Z,0
2017-04-13T00:54:16.484Z,0
2017-04-13T00:55:26.285Z,0
2017-04-13T00:56:36.157Z,0
2017-04-13T00:57:46.579Z,0
2017-04-13T00:58:56.648Z,0
2017-04-13T01:00:06.754Z,0
2017-04-13T01:01:16.846Z,0
2017-04-13T01:02:26.751Z,0
2017-04-13T01:03:37.125Z,0
2017-04-13T01:04:47.197Z,0
2017-04-13T01:05:57.399Z,0
2017-04-13T01:07:07.124Z,0
2017-04-13T01:08:17.221Z,0
2017-04-13T01:09:27.314Z,0
2017-04-13T01:10:37.399Z,0
2017-04-13T01:11:47.186Z,0
2017-04-13T01:12:57.258Z,0
2017-04-13T01:14:06.994Z,0
2017-04-13T01:15:17.490Z,0
2017-04-13T01:16:27.734Z,0
2017-04-13T01:17:37.489Z,0
2017-04-13T01:18:46.888Z,0
2017-04-13T01:19:56.645Z,0
2017-04-13T01:21:06.883Z,0
2017-04-13T01:22:16.622Z,0
2017-04-13T01:23:26.371Z,0
2017-04-13T01:24:36.450Z,0
2017-04-13T01:25:46.535Z,0
2017-04-13T01:26:57.005Z,0
2017-04-13T01:28:07.146Z,0
2017-04-13T01:29:17.230Z,0
2017-04-13T01:30:27.004Z,0
2017-04-13T01:31:36.793Z,0
2017-04-13T01:32:47.209Z,0
2017-04-13T01:33:57.276Z,0
2017-04-13T01:35:07.348Z,0
2017-04-13T01:36:17.434Z,0
2017-04-13T01:37:27.516Z,0
2017-04-13T01:38:37.882Z,0
2017-04-13T01:39:48.113Z,0
2017-04-13T01:40:57.845Z,0
2017-04-13T01:42:07.986Z,0
2017-04-13T01:43:17.766Z,0
2017-04-13T01:44:28.175Z,0
2017-04-13T01:45:38.334Z,0
2017-04-13T01:46:48.515Z,0
2017-04-13T01:47:58.723Z,0
2017-04-13T01:49:08.464Z,0
2017-04-13T01:50:18.236Z,0
2017-04-13T01:51:28.023Z,0
2017-04-13T01:52:37.839Z,0
2017-04-13T01:53:47.978Z,0
2017-04-13T01:54:57.782Z,0
2017-04-13T01:56:08.177Z,0
2017-04-13T01:57:17.912Z,0
2017-04-13T01:58:27.977Z,0
2017-04-13T01:59:38.052Z,0
2017-04-13T02:00:48.129Z,0
2017-04-13T02:01:58.584Z,0
2017-04-13T02:03:08.327Z,0
2017-04-13T02:04:18.075Z,0
2017-04-13T02:05:27.847Z,0
2017-04-13T02:06:37.589Z,0
2017-04-13T02:07:47.639Z,0
2017-04-13T02:08:57.708Z,0
2017-04-13T02:10:07.810Z,0
2017-04-13T02:11:17.550Z,0
2017-04-13T02:12:27.635Z,0
2017-04-13T02:13:38.102Z,0
2017-04-13T02:14:48.303Z,0
2017-04-13T02:15:58.608Z,0
2017-04-13T02:17:08.674Z,0
2017-04-13T02:18:18.426Z,0
2017-04-13T02:19:28.466Z,0
2017-04-13T02:20:38.246Z,0
2017-04-13T02:21:48.306Z,0
2017-04-13T02:22:58.428Z,0
2017-04-13T02:24:08.532Z,0
2017-04-13T02:25:18.916Z,0
2017-04-13T02:26:29.199Z,0
2017-04-13T02:27:39.275Z,0
2017-04-13T02:28:49.005Z,0
2017-04-13T02:29:58.827Z,0
2017-04-13T02:31:08.251Z,0
2017-04-13T02:32:17.995Z,0
2017-04-13T02:33:28.063Z,0
2017-04-13T02:34:37.802Z,0
2017-04-13T02:35:47.862Z,0
2017-04-13T02:36:57.913Z,0
2017-04-13T02:38:08.044Z,0
2017-04-13T02:39:18.101Z,0
2017-04-13T02:40:28.265Z,0
2017-04-13T02:41:38.326Z,0
2017-04-13T02:42:48.361Z,0
2017-04-13T02:43:58.441Z,0
2017-04-13T02:45:08.656Z,0
2017-04-13T02:46:18.828Z,0
2017-04-13T02:47:28.904Z,0
2017-04-13T02:48:39.263Z,0
2017-04-13T02:49:48.675Z,0
2017-04-13T02:50:58.590Z,0
2017-04-13T02:52:08.391Z,0
2017-04-13T02:53:18.178Z,0
2017-04-13T02:54:28.589Z,0
2017-04-13T02:55:38.682Z,0
2017-04-13T02:56:48.747Z,0
2017-04-13T02:57:58.941Z,0
2017-04-13T02:59:08.996Z,0
2017-04-13T03:00:19.430Z,0
2017-04-13T03:01:29.155Z,0
2017-04-13T03:02:38.885Z,0
2017-04-13T03:03:48.671Z,0
2017-04-13T03:04:58.066Z,0
2017-04-13T03:06:08.467Z,0
2017-04-13T03:07:17.879Z,0
2017-04-13T03:08:27.983Z,0
2017-04-13T03:09:38.118Z,0
2017-04-13T03:10:48.283Z,0
2017-04-13T03:11:58.443Z,0
2017-04-13T03:13:08.197Z,0
2017-04-13T03:14:17.941Z,0
2017-04-13T03:15:28.012Z,0
2017-04-13T03:16:38.151Z,0
2017-04-13T03:17:48.287Z,0
2017-04-13T03:18:58.068Z,0
2017-04-13T03:20:07.824Z,0
2017-04-13T03:21:17.560Z,0
2017-04-13T03:22:27.661Z,0
2017-04-13T03:23:37.710Z,0
2017-04-13T03:24:47.965Z,0
2017-04-13T03:25:57.406Z,0
2017-04-13T03:27:07.153Z,0
2017-04-13T03:28:16.979Z,0
2017-04-13T03:29:27.410Z,0
2017-04-13T03:30:37.478Z,0
2017-04-13T03:31:47.212Z,0
2017-04-13T03:32:56.965Z,0
2017-04-13T03:34:07.052Z,0
2017-04-13T03:35:16.827Z,0
2017-04-13T03:36:26.330Z,0
2017-04-13T03:37:36.236Z,0
2017-04-13T03:38:45.970Z,0
2017-04-13T03:39:56.029Z,0
2017-04-13T03:41:06.068Z,0
2017-04-13T03:42:16.298Z,0
2017-04-13T03:43:25.721Z,0
2017-04-13T03:44:35.642Z,0
2017-04-13T03:45:45.385Z,0
2017-04-13T03:46:55.852Z,0
2017-04-13T03:48:05.581Z,0
2017-04-13T03:49:15.474Z,0
2017-04-13T03:50:25.643Z,0
2017-04-13T03:51:35.779Z,0
2017-04-13T03:52:46.199Z,0
2017-04-13T03:53:56.292Z,0
2017-04-13T03:55:06.369Z,0
2017-04-13T03:56:16.160Z,0
2017-04-13T03:57:25.894Z,0
2017-04-13T03:58:36.065Z,0
2017-04-13T03:59:46.174Z,0
2017-04-13T04:00:56.284Z,0
2017-04-13T04:02:06.370Z,0
2017-04-13T04:03:16.467Z,0
2017-04-13T04:04:26.558Z,0
2017-04-13T04:05:36.346Z,0
2017-04-13T04:06:46.439Z,0
2017-04-13T04:07:56.539Z,0
2017-04-13T04:09:06.661Z,0
2017-04-13T04:10:16.368Z,0
2017-04-13T04:11:26.453Z,0
2017-04-13T04:12:36.514Z,5
2017-04-13T04:13:46.614Z,5
2017-04-13T04:14:56.724Z,5
2017-04-13T04:16:06.833Z,5
2017-04-13T04:17:16.958Z,5
2017-04-13T04:18:27.026Z,10
2017-04-13T04:19:37.149Z,10
2017-04-13T04:20:47.227Z,10
2017-04-13T04:21:57.282Z,10
2017-04-13T04:23:07.078Z,15
2017-04-13T04:24:16.809Z,15
2017-04-13T04:25:26.572Z,15
2017-04-13T04:26:36.412Z,15
2017-04-13T04:27:46.820Z,20
2017-04-13T04:28:56.223Z,20
2017-04-13T04:30:05.973Z,25
2017-04-13T04:31:16.131Z,25
2017-04-13T04:32:26.120Z,30
2017-04-13T04:33:36.190Z,30
2017-04-13T04:34:46.025Z,35
2017-04-13T04:35:55.420Z,35
2017-04-13T04:37:05.553Z,40
2017-04-13T04:38:15.661Z,40
2017-04-13T04:39:26.019Z,45
2017-04-13T04:40:35.485Z,45
2017-04-13T04:41:44.896Z,50
2017-04-13T04:42:55.042Z,50
2017-04-13T04:44:05.124Z,50
2017-04-13T04:45:15.220Z,55
2017-04-13T04:46:25.519Z,55
2017-04-13T04:47:35.706Z,55
2017-04-13T04:48:45.885Z,60
2017-04-13T04:49:55.941Z,60
2017-04-13T04:51:06.107Z,65
2017-04-13T04:52:16.268Z,65
2017-04-13T04:53:26.016Z,70
2017-04-13T04:54:36.209Z,70
2017-04-13T04:55:46.275Z,75
2017-04-13T04:56:56.338Z,80
2017-04-13T04:58:06.424Z,85
2017-04-13T04:59:15.880Z,85
2017-04-13T05:00:25.944Z,95
2017-04-13T05:01:35.797Z,100
2017-04-13T05:02:46.229Z,100
2017-04-13T05:03:56.331Z,95
2017-04-13T05:05:06.457Z,95
2017-04-13T05:06:16.192Z,100
2017-04-13T05:07:25.930Z,100
2017-04-13T05:08:35.971Z,105
2017-04-13T05:09:46.041Z,100
2017-04-13T05:10:56.128Z,110
2017-04-13T05:12:06.205Z,125
2017-04-13T05:13:16.270Z,135
2017-04-13T05:14:26.806Z,120
2017-04-13T05:15:36.571Z,125
2017-04-13T05:16:46.707Z,135
2017-04-13T05:17:56.170Z,150
2017-04-13T05:19:06.234Z,150
2017-04-13T05:20:16.296Z,155
2017-04-13T05:21:26.168Z,140
2017-04-13T05:22:35.681Z,130
2017-04-13T05:23:45.427Z,140
2017-04-13T05:24:55.488Z,125
2017-04-13T05:26:05.585Z,130
2017-04-13T05:27:15.425Z,130
2017-04-13T05:28:25.167Z,135
2017-04-13T05:29:34.916Z,145
2017-04-13T05:30:45.088Z,155
2017-04-13T05:31:55.136Z,170
2017-04-13T05:33:05.206Z,175
2017-04-13T05:34:15.346Z,185
2017-04-13T05:35:25.423Z,200
2017-04-13T05:36:35.209Z,200
2017-04-13T05:37:45.281Z,205
2017-04-13T05:38:55.362Z,205
2017-04-13T05:40:05.457Z,205
2017-04-13T05:41:15.264Z,205
2017-04-13T05:42:25.331Z,210
2017-04-13T05:43:35.471Z,225
2017-04-13T05:44:45.206Z,230
2017-04-13T05:45:55.306Z,255
2017-04-13T05:47:05.060Z,235
2017-04-13T05:48:15.191Z,235
2017-04-13T05:49:25.596Z,240
2017-04-13T05:50:35.696Z,235
2017-04-13T05:51:45.790Z,240
2017-04-13T05:52:55.566Z,245
2017-04-13T05:54:05.006Z,245
2017-04-13T05:55:15.049Z,240
2017-04-13T05:56:24.458Z,240
2017-04-13T05:57:34.529Z,240
2017-04-13T05:58:44.265Z,240
2017-04-13T05:59:54.015Z,245
2017-04-13T06:01:04.387Z,235
2017-04-13T06:02:14.144Z,225
2017-04-13T06:03:24.227Z,225
2017-04-13T06:04:34.362Z,225
2017-04-13T06:05:44.446Z,235
2017-04-13T06:06:54.482Z,235
2017-04-13T06:08:04.606Z,240
2017-04-13T06:09:14.737Z,245
2017-04-13T06:10:24.858Z,245
2017-04-13T06:11:34.936Z,245
2017-04-13T06:12:45.414Z,250
2017-04-13T06:13:55.208Z,260
2017-04-13T06:15:05.004Z,270
2017-04-13T06:16:14.493Z,280
2017-04-13T06:17:24.772Z,280
2017-04-13T06:18:35.263Z,285
2017-04-13T06:19:45.322Z,290
2017-04-13T06:20:55.382Z,290
2017-04-13T06:22:05.507Z,290
2017-04-13T06:23:15.569Z,300
2017-04-13T06:24:26.196Z,310
2017-04-13T06:25:36.610Z,330
2017-04-13T06:26:46.730Z,340
2017-04-13T06:27:56.801Z,340
2017-04-13T06:29:06.871Z,350
2017-04-13T06:30:16.571Z,335
2017-04-13T06:31:26.691Z,320
2017-04-13T06:32:36.247Z,300
2017-04-13T06:33:45.648Z,285
2017-04-13T06:34:55.718Z,280
2017-04-13T06:36:05.840Z,290
2017-04-13T06:37:15.979Z,300
2017-04-13T06:38:26.164Z,290
2017-04-13T06:39:36.290Z,270
2017-04-13T06:40:46.451Z,270
2017-04-13T06:41:56.882Z,280
2017-04-13T06:43:07.017Z,285
2017-04-13T06:44:17.094Z,295
2017-04-13T06:45:26.823Z,290
2017-04-13T06:46:36.918Z,295
2017-04-13T06:47:47.031Z,305
2017-04-13T06:48:57.124Z,325
2017-04-13T06:50:07.194Z,365
2017-04-13T06:51:17.363Z,385
2017-04-13T06:52:27.504Z,385
2017-04-13T06:53:36.612Z,375
2017-04-13T06:54:46.680Z,365
2017-04-13T06:55:56.523Z,370
2017-04-13T06:57:06.353Z,370
2017-04-13T06:58:16.131Z,370
2017-04-13T06:59:26.509Z,395
2017-04-13T07:00:36.609Z,430
2017-04-13T07:01:46.351Z,455
2017-04-13T07:02:56.475Z,460
2017-04-13T07:04:05.925Z,465
2017-04-13T07:05:16.045Z,480
2017-04-13T07:06:26.165Z,470
2017-04-13T07:07:36.229Z,430
2017-04-13T07:08:46.298Z,415
2017-04-13T07:09:56.376Z,425
2017-04-13T07:11:06.769Z,450
2017-04-13T07:12:16.928Z,440
2017-04-13T07:13:27.018Z,360
2017-04-13T07:14:37.133Z,380
2017-04-13T07:15:47.401Z,365
2017-04-13T07:16:57.489Z,335
2017-04-13T07:18:07.248Z,310
2017-04-13T07:19:17.371Z,320
2017-04-13T07:20:27.460Z,340
2017-04-13T07:21:37.544Z,355
2017-04-13T07:22:47.680Z,320
2017-04-13T07:23:57.416Z,275
2017-04-13T07:25:07.491Z,270
2017-04-13T07:26:17.292Z,280
2017-04-13T07:27:27.391Z,295
2017-04-13T07:28:37.764Z,300
2017-04-13T07:29:47.885Z,270
2017-04-13T07:30:57.973Z,235
2017-04-13T07:32:08.075Z,240
2017-04-13T07:33:17.834Z,250
2017-04-13T07:34:27.957Z,280
2017-04-13T07:35:38.117Z,280
2017-04-13T07:36:48.235Z,285
2017-04-13T07:37:58.313Z,305
2017-04-13T07:39:08.411Z,310
2017-04-13T07:40:18.815Z,290
2017-04-13T07:41:28.550Z,280
2017-04-13T07:42:38.008Z,310
2017-04-13T07:43:48.098Z,325
2017-04-13T07:44:58.262Z,325
2017-04-13T07:46:08.726Z,325
2017-04-13T07:47:18.934Z,305
2017-04-13T07:48:29.062Z,280
2017-04-13T07:49:39.054Z,290
2017-04-13T07:50:49.138Z,305
2017-04-13T07:51:58.863Z,290
2017-04-13T07:53:08.645Z,295
2017-04-13T07:54:18.604Z,315
2017-04-13T07:55:28.008Z,350
2017-04-13T07:56:38.234Z,370
2017-04-13T07:57:48.505Z,415
2017-04-13T07:58:58.587Z,435
2017-04-13T08:00:08.353Z,430
2017-04-13T08:01:18.422Z,430
2017-04-13T08:02:28.381Z,420
2017-04-13T08:03:38.785Z,400
2017-04-13T08:04:48.538Z,385
2017-04-13T08:05:58.606Z,380
2017-04-13T08:07:08.691Z,395
2017-04-13T08:08:18.181Z,410
2017-04-13T08:09:28.290Z,415
2017-04-13T08:10:38.437Z,460
2017-04-13T08:11:48.181Z,520
2017-04-13T08:12:58.243Z,515
2017-04-13T08:14:08.374Z,535
2017-04-13T08:15:18.757Z,565
2017-04-13T08:16:28.157Z,535
2017-04-13T08:17:37.946Z,500
2017-04-13T08:18:47.696Z,480
2017-04-13T08:19:57.579Z,490
2017-04-13T08:21:08.045Z,520
2017-04-13T08:22:18.115Z,560
2017-04-13T08:23:28.004Z,675
2017-04-13T08:24:38.242Z,765
2017-04-13T08:25:47.988Z,650
2017-04-13T08:26:58.366Z,455
2017-04-13T08:28:08.503Z,450
2017-04-13T08:29:17.743Z,540
2017-04-13T08:30:27.916Z,660
2017-04-13T08:31:37.658Z,645
2017-04-13T08:32:47.695Z,655
2017-04-13T08:33:57.857Z,810
2017-04-13T08:35:07.588Z,1045
2017-04-13T08:36:18.010Z,1265
2017-04-13T08:37:28.438Z,1090
2017-04-13T08:38:39.625Z,930
2017-04-13T08:39:50.429Z,795
2017-04-13T08:41:01.272Z,685
2017-04-13T08:42:11.969Z,605
2017-04-13T08:43:23.381Z,630
2017-04-13T08:44:35.349Z,640
2017-04-13T08:45:45.740Z,805
2017-04-13T08:46:56.661Z,860
2017-04-13T08:48:08.569Z,1100
2017-04-13T08:49:18.967Z,1280
2017-04-13T08:50:29.685Z,2450
2017-04-13T08:51:40.398Z,1965
2017-04-13T08:52:50.432Z,1385
2017-04-13T08:54:01.187Z,1440
2017-04-13T08:55:11.962Z,2220
2017-04-13T08:56:23.127Z,1245
2017-04-13T08:57:33.516Z,1105
2017-04-13T08:58:44.286Z,1155
2017-04-13T08:59:54.987Z,1870
2017-04-13T09:01:05.774Z,3115
2017-04-13T09:02:16.818Z,3555
2017-04-13T09:03:26.834Z,3895
2017-04-13T09:04:36.901Z,2505
2017-04-13T09:05:47.653Z,3435
2017-04-13T09:06:58.118Z,3740
2017-04-13T09:08:08.551Z,3115
2017-04-13T09:09:18.934Z,3505
2017-04-13T09:10:30.744Z,1320
2017-04-13T09:11:41.482Z,990
2017-04-13T09:12:52.906Z,755
2017-04-13T09:14:03.926Z,765
2017-04-13T09:15:14.691Z,545
2017-04-13T09:16:25.399Z,535
2017-04-13T09:17:35.786Z,540
2017-04-13T09:18:46.674Z,575
2017-04-13T09:19:57.974Z,610
2017-04-13T09:21:08.691Z,600
2017-04-13T09:22:19.061Z,670
2017-04-13T09:23:29.857Z,710
2017-04-13T09:24:40.253Z,680
2017-04-13T09:25:52.260Z,615
2017-04-13T09:27:02.966Z,565
2017-04-13T09:28:13.690Z,670
2017-04-13T09:29:24.113Z,910
2017-04-13T09:30:34.853Z,980
2017-04-13T09:31:45.916Z,935
2017-04-13T09:32:56.455Z,1015
2017-04-13T09:34:07.022Z,1235
2017-04-13T09:35:17.808Z,1080
2017-04-13T09:36:28.567Z,1060
2017-04-13T09:37:39.244Z,1115
2017-04-13T09:38:49.673Z,1005
2017-04-13T09:40:00.573Z,885
2017-04-13T09:41:10.614Z,1175
2017-04-13T09:42:21.046Z,1655
2017-04-13T09:43:31.417Z,2800
2017-04-13T09:44:42.167Z,1235
2017-04-13T09:45:52.922Z,4295
2017-04-13T09:47:04.250Z,4240
2017-04-13T09:48:47.086Z,2005
2017-04-13T09:49:57.789Z,1495
2017-04-13T09:51:08.494Z,1510
2017-04-13T09:52:20.157Z,2710
2017-04-13T09:53:30.589Z,1625
2017-04-13T09:54:41.647Z,4860
2017-04-13T09:55:52.010Z,1345
2017-04-13T09:57:02.922Z,1085
2017-04-13T09:58:13.705Z,1080
2017-04-13T09:59:24.438Z,1005
2017-04-13T10:00:35.498Z,1000
2017-04-13T10:01:47.186Z,1585
2017-04-13T10:02:58.144Z,1395
2017-04-13T10:04:08.864Z,1655
2017-04-13T10:05:20.489Z,1430
2017-04-13T10:06:31.578Z,5400
2017-04-13T10:07:42.353Z,1875
2017-04-13T10:08:53.172Z,1720
2017-04-13T10:10:03.218Z,1175
2017-04-13T10:11:13.938Z,1125
2017-04-13T10:12:24.385Z,1055
2017-04-13T10:13:35.178Z,1005
2017-04-13T10:14:45.954Z,1120
2017-04-13T10:15:57.636Z,775
2017-04-13T10:17:08.185Z,1085
2017-04-13T10:18:19.218Z,2015
2017-04-13T10:19:29.638Z,1150
2017-04-13T10:20:40.387Z,2390
2017-04-13T10:21:51.388Z,1515
2017-04-13T10:23:01.844Z,4585
2017-04-13T10:24:13.817Z,3790
2017-04-13T10:25:24.201Z,2870
2017-04-13T10:26:34.906Z,5525
2017-04-13T10:27:45.351Z,4185
2017-04-13T10:28:55.804Z,4510
2017-04-13T10:30:06.654Z,1985
2017-04-13T10:31:17.033Z,1435
2017-04-13T10:32:27.755Z,1005
2017-04-13T10:33:38.631Z,745
2017-04-13T10:34:49.148Z,690
2017-04-13T10:35:59.493Z,670
2017-04-13T10:37:09.927Z,670
2017-04-13T10:38:20.686Z,775
2017-04-13T10:39:31.102Z,870
2017-04-13T10:40:41.855Z,840
2017-04-13T10:41:53.845Z,615
2017-04-13T10:43:04.222Z,650
2017-04-13T10:44:14.953Z,825
2017-04-13T10:45:26.292Z,910
2017-04-13T10:46:37.001Z,550
2017-04-13T10:47:47.618Z,685
2017-04-13T10:48:58.442Z,2615
2017-04-13T10:50:09.153Z,1125
2017-04-13T10:51:20.902Z,990
2017-04-13T10:52:32.236Z,5220
2017-04-13T10:53:42.917Z,4985
2017-04-13T10:54:53.624Z,4935
2017-04-13T10:56:04.007Z,5335
2017-04-13T10:57:14.101Z,1890
2017-04-13T10:58:24.835Z,5785
2017-04-13T10:59:35.540Z,2550
2017-04-13T11:00:46.367Z,1485
2017-04-13T11:01:57.141Z,1720
2017-04-13T11:03:07.537Z,1440
2017-04-13T11:04:18.277Z,1155
2017-04-13T11:05:28.607Z,1295
2017-04-13T11:06:39.427Z,955
2017-04-13T11:07:50.132Z,1005
2017-04-13T11:09:01.624Z,1280
2017-04-13T11:10:12.001Z,1610
2017-04-13T11:11:23.059Z,1475
2017-04-13T11:12:34.725Z,2330
2017-04-13T11:13:45.122Z,5250
2017-04-13T11:14:55.929Z,2080
2017-04-13T11:16:06.696Z,2385
2017-04-13T11:17:17.674Z,2215
2017-04-13T11:18:28.044Z,1405
2017-04-13T11:19:38.803Z,1270
2017-04-13T11:20:49.605Z,1240
2017-04-13T11:22:01.350Z,1075
2017-04-13T11:23:12.488Z,1020
2017-04-13T11:24:23.351Z,1195
2017-04-13T11:25:34.068Z,1290
2017-04-13T11:26:44.451Z,1185
2017-04-13T11:27:54.872Z,775
2017-04-13T11:29:06.039Z,665
2017-04-13T11:30:16.756Z,640
2017-04-13T11:31:27.557Z,645
2017-04-13T11:32:38.374Z,665
2017-04-13T11:33:48.428Z,635
2017-04-13T11:34:58.753Z,745
2017-04-13T11:36:08.518Z,615
2017-04-13T11:37:18.218Z,565
2017-04-13T11:38:28.991Z,575
2017-04-13T11:39:39.417Z,760
2017-04-13T11:40:51.499Z,880
2017-04-13T11:42:01.876Z,890
2017-04-13T11:43:12.251Z,900
2017-04-13T11:44:22.985Z,1160
2017-04-13T11:45:33.403Z,1800
2017-04-13T11:46:44.545Z,1405
2017-04-13T11:47:55.875Z,1370
2017-04-13T11:49:06.678Z,1215
2017-04-13T11:50:18.015Z,1145
2017-04-13T11:51:28.385Z,1190
2017-04-13T11:52:39.561Z,1180
2017-04-13T11:53:50.275Z,1155
2017-04-13T11:55:01.714Z,1205
2017-04-13T11:56:12.093Z,1105
2017-04-13T11:57:22.807Z,795
2017-04-13T11:58:33.843Z,745
2017-04-13T11:59:44.318Z,730
2017-04-13T12:00:54.712Z,765
2017-04-13T12:02:05.428Z,845
2017-04-13T12:03:16.188Z,985
2017-04-13T12:04:27.321Z,920
2017-04-13T12:05:38.021Z,720
2017-04-13T12:06:48.757Z,620
2017-04-13T12:07:59.580Z,570
2017-04-13T12:09:10.301Z,435
2017-04-13T12:10:22.044Z,365
2017-04-13T12:11:32.893Z,320
2017-04-13T12:12:43.627Z,355
2017-04-13T12:13:53.370Z,475
2017-04-13T12:15:03.170Z,525
2017-04-13T12:16:13.649Z,495
2017-04-13T12:17:23.738Z,405
2017-04-13T12:18:33.827Z,345
2017-04-13T12:19:43.635Z,290
2017-04-13T12:20:53.422Z,270
2017-04-13T12:22:03.836Z,305
2017-04-13T12:23:13.598Z,330
2017-04-13T12:24:23.361Z,290
2017-04-13T12:25:33.439Z,235
2017-04-13T12:26:42.859Z,255
2017-04-13T12:27:52.571Z,305
2017-04-13T12:29:02.692Z,355
2017-04-13T12:30:12.772Z,395
2017-04-13T12:31:22.195Z,420
2017-04-13T12:32:32.343Z,435
2017-04-13T12:33:42.842Z,480
2017-04-13T12:34:52.685Z,610
2017-04-13T12:36:02.819Z,895
2017-04-13T12:37:12.621Z,935
2017-04-13T12:38:22.829Z,1055
2017-04-13T12:39:33.210Z,950
2017-04-13T12:40:42.967Z,995
2017-04-13T12:41:53.104Z,1015
2017-04-13T12:43:02.930Z,975
2017-04-13T12:44:13.010Z,880
2017-04-13T12:45:23.072Z,970
2017-04-13T12:46:33.217Z,1150
2017-04-13T12:47:43.345Z,1395
2017-04-13T12:48:53.097Z,1310
2017-04-13T12:50:02.255Z,2950
2017-04-13T12:51:12.312Z,2775
2017-04-13T12:52:23.368Z,2475
2017-04-13T12:53:34.087Z,1740
2017-04-13T12:54:44.274Z,1445
2017-04-13T12:55:55.072Z,1885
2017-04-13T12:57:05.843Z,1595
2017-04-13T12:58:16.633Z,1490
2017-04-13T12:59:27.390Z,1555
2017-04-13T13:00:39.141Z,2085
2017-04-13T13:01:50.474Z,4065
2017-04-13T13:03:00.992Z,3520
2017-04-13T13:04:11.697Z,2175
2017-04-13T13:05:22.577Z,2990
2017-04-13T13:06:33.352Z,2585
2017-04-13T13:07:43.719Z,4495
2017-04-13T13:08:54.801Z,1205
2017-04-13T13:10:05.612Z,1140
2017-04-13T13:11:16.052Z,1205
2017-04-13T13:12:26.092Z,1815
2017-04-13T13:13:36.492Z,1670
2017-04-13T13:14:47.281Z,2985
2017-04-13T13:15:57.742Z,2575
2017-04-13T13:17:08.531Z,1730
2017-04-13T13:18:19.325Z,1470
2017-04-13T13:19:30.038Z,2855
2017-04-13T13:20:40.792Z,2810
2017-04-13T13:21:51.521Z,2760
2017-04-13T13:23:01.921Z,1065
2017-04-13T13:24:12.689Z,1295
2017-04-13T13:25:23.124Z,990
2017-04-13T13:26:34.155Z,1785
2017-04-13T13:27:45.060Z,1150
2017-04-13T13:28:55.854Z,1425
2017-04-13T13:30:06.272Z,3410
2017-04-13T13:31:16.338Z,985
2017-04-13T13:32:27.367Z,3230
2017-04-13T13:33:38.069Z,2825
2017-04-13T13:34:48.221Z,1275
2017-04-13T13:35:59.911Z,1120
2017-04-13T13:37:09.692Z,3385
2017-04-13T13:38:20.377Z,3315
2017-04-13T13:39:32.093Z,3565
2017-04-13T13:40:43.779Z,2375
2017-04-13T13:41:53.745Z,2435
2017-04-13T13:43:04.526Z,3680
2017-04-13T13:44:15.231Z,2145
2017-04-13T13:45:26.019Z,1575
2017-04-13T13:46:36.459Z,3440
2017-04-13T13:47:46.538Z,870
2017-04-13T13:48:56.630Z,810
2017-04-13T13:50:07.446Z,720
2017-04-13T13:51:17.504Z,730
2017-04-13T13:52:28.232Z,720
2017-04-13T13:53:38.641Z,745
2017-04-13T13:54:49.416Z,815
2017-04-13T13:56:00.099Z,850
2017-04-13T13:57:10.520Z,905
2017-04-13T13:58:21.378Z,4385
2017-04-13T13:59:32.242Z,1030
2017-04-13T14:00:43.056Z,1020
2017-04-13T14:01:54.120Z,1080
2017-04-13T14:03:04.850Z,3730
2017-04-13T14:04:15.569Z,3175
2017-04-13T14:05:26.289Z,2735
2017-04-13T14:06:37.976Z,2620
2017-04-13T14:07:48.288Z,2725
2017-04-13T14:08:59.103Z,1395
2017-04-13T14:10:10.767Z,1245
2017-04-13T14:11:21.232Z,1360
2017-04-13T14:12:31.627Z,2190
2017-04-13T14:13:42.301Z,3190
2017-04-13T14:14:52.688Z,1580
2017-04-13T14:16:03.406Z,2895
2017-04-13T14:17:14.115Z,2755
2017-04-13T14:18:24.527Z,2655
2017-04-13T14:19:35.450Z,2655
2017-04-13T14:20:45.897Z,2595
2017-04-13T14:21:56.669Z,2715
2017-04-13T14:23:07.390Z,2460
2017-04-13T14:24:17.901Z,1830
2017-04-13T14:25:28.950Z,750
2017-04-13T14:26:39.388Z,1085
2017-04-13T14:27:50.299Z,1985
2017-04-13T14:29:01.056Z,2945
2017-04-13T14:30:11.512Z,2895
2017-04-13T14:31:22.251Z,2980
2017-04-13T14:32:32.986Z,3115
2017-04-13T14:33:43.752Z,1515
2017-04-13T14:34:54.147Z,1405
2017-04-13T14:36:04.895Z,810
2017-04-13T14:37:15.736Z,835
2017-04-13T14:38:26.161Z,2180
2017-04-13T14:39:36.879Z,2240
2017-04-13T14:40:48.569Z,2325
2017-04-13T14:41:58.974Z,1590
2017-04-13T14:43:10.929Z,2175
2017-04-13T14:44:21.661Z,1145
2017-04-13T14:45:32.405Z,835
2017-04-13T14:46:43.153Z,1455
2017-04-13T14:47:54.014Z,1500
2017-04-13T14:49:05.983Z,1040
2017-04-13T14:50:16.749Z,665
2017-04-13T14:51:27.611Z,590
2017-04-13T14:52:38.342Z,680
2017-04-13T14:53:48.737Z,785
2017-04-13T14:55:00.153Z,720
2017-04-13T14:56:11.216Z,640
2017-04-13T14:57:23.032Z,700
2017-04-13T14:58:33.428Z,670
2017-04-13T14:59:44.151Z,565
2017-04-13T15:00:54.825Z,475
2017-04-13T15:02:05.149Z,420
2017-04-13T15:03:15.929Z,400
2017-04-13T15:04:26.318Z,415
2017-04-13T15:05:36.723Z,425
2017-04-13T15:06:47.178Z,480
2017-04-13T15:07:57.902Z,440
2017-04-13T15:09:09.288Z,470
2017-04-13T15:10:19.694Z,455
2017-04-13T15:11:30.416Z,445
2017-04-13T15:12:41.504Z,440
2017-04-13T15:13:52.300Z,415
2017-04-13T15:15:02.680Z,380
2017-04-13T15:16:13.405Z,340
2017-04-13T15:17:23.860Z,285
2017-04-13T15:18:34.554Z,255
2017-04-13T15:19:45.403Z,240
2017-04-13T15:20:56.134Z,225
2017-04-13T15:22:07.798Z,210
2017-04-13T15:23:17.907Z,195
2017-04-13T15:24:28.393Z,190
2017-04-13T15:25:38.491Z,185
2017-04-13T15:26:48.251Z,190
2017-04-13T15:27:58.384Z,185
2017-04-13T15:29:08.507Z,190
2017-04-13T15:30:19.031Z,195
2017-04-13T15:31:29.242Z,185
2017-04-13T15:32:39.459Z,160
2017-04-13T15:33:49.574Z,150
2017-04-13T15:34:59.909Z,150
2017-04-13T15:36:09.977Z,160
2017-04-13T15:37:20.056Z,175
2017-04-13T15:38:30.192Z,195
2017-04-13T15:39:40.363Z,190
2017-04-13T15:40:50.499Z,190
2017-04-13T15:42:00.544Z,185
2017-04-13T15:43:10.168Z,165
2017-04-13T15:44:19.993Z,160
2017-04-13T15:45:30.190Z,175
2017-04-13T15:46:40.270Z,200
2017-04-13T15:47:50.651Z,200
2017-04-13T15:49:00.844Z,240
2017-04-13T15:50:10.926Z,310
2017-04-13T15:51:21.033Z,395
2017-04-13T15:52:30.847Z,440
2017-04-13T15:53:40.939Z,460
2017-04-13T15:54:51.082Z,465
2017-04-13T15:56:01.220Z,430
2017-04-13T15:57:11.113Z,385
2017-04-13T15:58:20.860Z,350
2017-04-13T15:59:30.933Z,330
2017-04-13T16:00:40.673Z,315
2017-04-13T16:01:50.778Z,270
2017-04-13T16:03:00.991Z,250
2017-04-13T16:04:10.410Z,245
2017-04-13T16:05:20.882Z,245
2017-04-13T16:06:30.662Z,265
2017-04-13T16:07:40.426Z,270
2017-04-13T16:08:50.523Z,275
2017-04-13T16:10:00.645Z,290
2017-04-13T16:11:11.034Z,330
2017-04-13T16:12:21.230Z,355
2017-04-13T16:13:30.654Z,370
2017-04-13T16:14:40.777Z,365
2017-04-13T16:15:50.993Z,345
2017-04-13T16:17:01.381Z,335
2017-04-13T16:18:11.128Z,330
2017-04-13T16:19:21.236Z,330